createdAt,value
2022-12-14T00:01:55.692Z,17.13
2022-12-14T00:04:23.581Z,18.27
2022-12-14T00:06:51.416Z,20.67
2022-12-14T00:09:19.308Z,14.53
2022-12-14T00:11:47.138Z,12.47
2022-12-14T00:14:15.015Z,16.90
2022-12-14T00:16:42.851Z,13.60
2022-12-14T00:19:12.937Z,13.43
2022-12-14T00:21:40.961Z,12.83
2022-12-14T00:24:09.026Z,15.27
2022-12-14T00:26:36.918Z,14.83
2022-12-14T00:29:05.041Z,14.20
2022-12-14T00:31:34.034Z,19.87
2022-12-14T00:34:02.240Z,18.00
2022-12-14T00:36:32.196Z,16.27
2022-12-14T00:39:00.379Z,19.63
2022-12-14T00:41:28.254Z,15.07
2022-12-14T00:43:56.168Z,12.93
2022-12-14T00:46:24.057Z,10.93
2022-12-14T00:48:51.995Z,10.03
2022-12-14T00:51:20.249Z,10.03
2022-12-14T00:53:49.479Z,10.13
2022-12-14T00:56:17.426Z,9.47
2022-12-14T00:58:45.288Z,9.67
2022-12-14T01:01:14.400Z,9.53
2022-12-14T01:03:42.747Z,9.43
2022-12-14T01:06:16.023Z,9.60
2022-12-14T01:08:43.901Z,9.70
2022-12-14T01:11:14.136Z,8.43
2022-12-14T01:13:42.882Z,10.07
2022-12-14T01:16:12.621Z,9.57
2022-12-14T01:18:42.873Z,10.03
2022-12-14T01:21:13.172Z,9.73
2022-12-14T01:23:41.423Z,9.47
2022-12-14T01:26:09.424Z,9.97
2022-12-14T01:28:39.666Z,12.47
2022-12-14T01:31:09.361Z,9.87
2022-12-14T01:33:37.726Z,10.03
2022-12-14T01:36:07.197Z,11.03
2022-12-14T01:38:35.200Z,10.70
2022-12-14T01:41:03.625Z,10.43
2022-12-14T01:46:32.668Z,10.47
2022-12-14T01:49:14.325Z,9.33
2022-12-14T01:51:46.805Z,9.83
2022-12-14T01:54:16.060Z,10.63
2022-12-14T01:56:46.240Z,10.23
2022-12-14T01:59:20.042Z,10.37
2022-12-14T02:01:50.257Z,10.03
2022-12-14T02:04:20.064Z,10.20
2022-12-14T02:06:50.271Z,10.73
2022-12-14T02:09:22.052Z,9.80
2022-12-14T02:11:56.530Z,10.50
2022-12-14T02:14:25.458Z,11.37
2022-12-14T02:16:56.075Z,10.97
2022-12-14T02:19:24.113Z,10.07
2022-12-14T02:22:15.862Z,8.80
2022-12-14T02:25:04.516Z,8.47
2022-12-14T02:28:00.036Z,8.47
2022-12-14T02:30:35.230Z,8.70
2022-12-14T02:33:22.881Z,9.13
2022-12-14T02:35:55.452Z,8.60
2022-12-14T02:38:34.623Z,9.47
2022-12-14T02:41:10.436Z,9.00
2022-12-14T02:43:47.389Z,8.90
2022-12-14T02:46:23.243Z,8.90
2022-12-14T02:48:58.391Z,8.80
2022-12-14T02:51:33.831Z,9.27
2022-12-14T02:54:05.675Z,10.00
2022-12-14T02:56:39.258Z,10.33
2022-12-14T02:59:10.124Z,9.73
2022-12-14T03:01:41.123Z,9.43
2022-12-14T03:04:09.411Z,9.50
2022-12-14T03:06:37.415Z,9.53
2022-12-14T03:09:08.052Z,9.23
2022-12-14T03:11:41.198Z,9.33
2022-12-14T03:14:14.521Z,8.70
2022-12-14T03:16:47.520Z,8.37
2022-12-14T03:19:22.603Z,8.77
2022-12-14T03:21:56.097Z,9.30
2022-12-14T03:24:29.744Z,8.83
2022-12-14T03:27:02.092Z,9.90
2022-12-14T03:29:33.767Z,9.40
2022-12-14T03:32:07.444Z,9.70
2022-12-14T03:34:38.987Z,8.83
2022-12-14T03:37:12.715Z,9.07
2022-12-14T03:39:43.171Z,8.90
2022-12-14T03:42:19.698Z,8.50
2022-12-14T03:44:55.947Z,9.17
2022-12-14T03:47:44.249Z,9.07
2022-12-14T03:50:16.905Z,8.57
2022-12-14T03:52:50.646Z,7.93
2022-12-14T03:55:26.281Z,7.30
2022-12-14T03:58:15.256Z,7.80
2022-12-14T04:00:51.034Z,7.50
2022-12-14T04:03:29.327Z,6.60
2022-12-14T04:06:02.927Z,7.57
2022-12-14T04:08:40.103Z,7.10
2022-12-14T04:11:27.191Z,7.83
2022-12-14T04:14:18.003Z,8.23
2022-12-14T04:17:06.391Z,8.30
2022-12-14T04:19:43.380Z,7.67
2022-12-14T04:22:15.637Z,7.60
2022-12-14T04:25:07.526Z,7.60
2022-12-14T04:27:40.280Z,7.87
2022-12-14T04:30:09.730Z,8.57
2022-12-14T04:32:42.483Z,8.33
2022-12-14T04:35:17.487Z,8.37
2022-12-14T04:37:50.042Z,8.60
2022-12-14T04:40:23.001Z,8.23
2022-12-14T04:42:54.939Z,8.23
2022-12-14T04:45:28.618Z,8.63
2022-12-14T04:48:01.721Z,9.23
2022-12-14T04:50:36.677Z,8.83
2022-12-14T04:53:09.585Z,8.20
2022-12-14T04:55:43.230Z,8.73
2022-12-14T04:58:15.994Z,9.50
2022-12-14T05:00:59.400Z,9.73
2022-12-14T05:03:31.208Z,11.47
2022-12-14T05:06:10.224Z,10.27
2022-12-14T05:09:00.774Z,10.50
2022-12-14T05:14:26.723Z,8.67
2022-12-14T05:16:54.773Z,10.87
2022-12-14T05:19:26.464Z,10.13
2022-12-14T05:21:56.630Z,10.83
2022-12-14T05:24:24.525Z,10.47
2022-12-14T05:26:52.453Z,11.33
2022-12-14T05:29:20.363Z,10.63
2022-12-14T05:31:49.758Z,9.50
2022-12-14T05:34:18.076Z,9.93
2022-12-14T05:36:46.021Z,10.13
2022-12-14T05:39:15.838Z,9.67
2022-12-14T05:41:44.185Z,9.93
2022-12-14T05:44:13.080Z,10.10
2022-12-14T05:46:41.182Z,9.67
2022-12-14T05:49:09.198Z,11.53
2022-12-14T05:51:37.095Z,11.23
2022-12-14T05:54:05.414Z,11.23
2022-12-14T05:56:34.718Z,11.27
2022-12-14T05:59:05.749Z,11.23
2022-12-14T06:01:33.727Z,12.10
2022-12-14T06:04:02.219Z,12.77
2022-12-14T06:06:30.115Z,13.07
2022-12-14T06:08:57.931Z,11.87
2022-12-14T06:11:25.870Z,13.47
2022-12-14T06:13:55.181Z,11.93
2022-12-14T06:16:24.955Z,13.80
2022-12-14T06:18:54.437Z,11.43
2022-12-14T06:21:25.617Z,13.27
2022-12-14T06:23:53.974Z,14.57
2022-12-14T06:26:22.199Z,15.03
2022-12-14T06:28:50.637Z,16.63
2022-12-14T06:31:22.472Z,14.43
2022-12-14T06:33:50.435Z,17.00
2022-12-14T06:36:19.938Z,17.80
2022-12-14T06:38:50.652Z,16.37
2022-12-14T06:41:19.358Z,17.83
2022-12-14T06:43:49.885Z,16.77
2022-12-14T06:46:21.498Z,18.30
2022-12-14T06:48:51.170Z,17.63
2022-12-14T06:51:19.090Z,16.00
2022-12-14T06:53:47.511Z,16.60
2022-12-14T06:56:17.595Z,18.17
2022-12-14T06:58:46.233Z,16.63
2022-12-14T07:01:17.823Z,18.47
2022-12-14T07:03:50.406Z,18.37
2022-12-14T07:06:18.867Z,17.50
2022-12-14T07:08:47.258Z,21.90
2022-12-14T07:11:17.181Z,19.63
2022-12-14T07:13:45.705Z,21.10
2022-12-14T07:16:18.510Z,20.40
2022-12-14T07:18:47.166Z,24.17
2022-12-14T07:21:18.397Z,23.07
2022-12-14T07:23:48.747Z,21.87
2022-12-14T07:26:18.783Z,20.57
2022-12-14T07:28:46.974Z,21.13
2022-12-14T07:31:16.605Z,20.83
2022-12-14T07:33:44.776Z,20.57
2022-12-14T07:36:15.908Z,19.57
2022-12-14T07:38:47.155Z,19.67
2022-12-14T07:41:22.027Z,21.37
2022-12-14T07:43:51.485Z,20.00
2022-12-14T07:46:21.866Z,19.17
2022-12-14T07:48:51.924Z,20.60
2022-12-14T07:51:21.298Z,21.03
2022-12-14T07:53:51.594Z,23.20
2022-12-14T07:56:21.709Z,21.03
2022-12-14T07:58:50.012Z,18.43
2022-12-14T08:01:19.895Z,19.37
2022-12-14T08:03:49.785Z,19.57
2022-12-14T08:06:19.590Z,19.90
2022-12-14T08:08:48.283Z,18.73
2022-12-14T08:11:19.479Z,20.13
2022-12-14T08:13:47.385Z,18.30
2022-12-14T08:16:17.371Z,17.20
2022-12-14T08:18:45.655Z,17.07
2022-12-14T08:21:15.459Z,17.23
2022-12-14T08:23:50.269Z,17.17
2022-12-14T08:26:20.403Z,16.37
2022-12-14T08:28:48.713Z,19.30
2022-12-14T08:31:18.705Z,20.20
2022-12-14T08:33:47.801Z,19.97
2022-12-14T08:36:17.645Z,18.60
2022-12-14T08:38:45.860Z,16.73
2022-12-14T08:41:17.052Z,16.87
2022-12-14T08:43:50.039Z,19.47
2022-12-14T08:46:18.217Z,19.57
2022-12-14T08:48:46.100Z,20.23
2022-12-14T08:51:14.530Z,18.93
2022-12-14T08:53:42.435Z,17.93
2022-12-14T08:56:12.539Z,19.17
2022-12-14T08:58:41.143Z,20.90
2022-12-14T09:01:13.353Z,19.40
2022-12-14T09:03:42.106Z,19.37
2022-12-14T09:06:12.554Z,22.63
2022-12-14T09:08:40.766Z,18.93
2022-12-14T09:11:12.679Z,20.13
2022-12-14T09:13:40.685Z,21.37
2022-12-14T09:16:13.789Z,20.10
2022-12-14T09:18:42.896Z,19.83
2022-12-14T09:21:11.324Z,18.70
2022-12-14T09:23:40.813Z,19.70
2022-12-14T09:26:12.164Z,20.73
2022-12-14T09:28:42.593Z,20.13
2022-12-14T09:31:14.560Z,18.87
2022-12-14T09:33:42.714Z,19.80
2022-12-14T09:36:13.646Z,20.43
2022-12-14T09:38:48.712Z,24.13
2022-12-14T09:41:31.764Z,22.87
2022-12-14T09:44:06.678Z,24.90
2022-12-14T09:46:48.582Z,24.93
2022-12-14T09:49:29.424Z,23.87
2022-12-14T09:52:00.618Z,23.10
2022-12-14T09:54:31.280Z,20.30
2022-12-14T09:57:02.762Z,20.90
2022-12-14T09:59:32.003Z,19.77
2022-12-14T10:02:33.804Z,18.97
2022-12-14T10:05:25.530Z,13.30
2022-12-14T10:08:04.735Z,13.00
2022-12-14T10:10:40.629Z,11.40
2022-12-14T10:13:22.663Z,11.50
2022-12-14T10:16:00.958Z,11.57
2022-12-14T10:24:08.725Z,8.97
2022-12-14T10:26:42.159Z,9.90
2022-12-14T10:59:39.635Z,10.33
2022-12-14T11:02:14.064Z,9.47
2022-12-14T11:04:50.454Z,9.97
2022-12-14T11:15:38.087Z,8.73
2022-12-14T11:18:20.859Z,9.50
2022-12-14T11:51:14.912Z,9.63
2022-12-14T11:53:43.028Z,9.93
2022-12-14T11:56:15.768Z,9.17
2022-12-14T11:58:49.530Z,10.53
2022-12-14T12:01:21.464Z,11.70
2022-12-14T12:03:52.977Z,10.53
2022-12-14T12:06:28.519Z,12.10
2022-12-14T12:23:33.561Z,11.90
2022-12-14T12:26:07.700Z,12.13
2022-12-14T12:34:02.961Z,11.67
2022-12-14T12:36:33.926Z,9.50
2022-12-14T12:42:46.689Z,2.80
2022-12-14T12:45:21.990Z,2.37
2022-12-14T12:47:54.575Z,2.97
2022-12-14T12:50:26.991Z,3.20
2022-12-14T12:53:03.582Z,3.00
2022-12-14T12:55:37.275Z,2.37
2022-12-14T12:58:10.303Z,2.43
2022-12-14T13:00:40.397Z,2.67
2022-12-14T13:03:13.572Z,2.70
2022-12-14T13:05:47.606Z,2.10
2022-12-14T13:11:26.456Z,2.83
2022-12-14T13:14:00.188Z,2.40
2022-12-14T13:16:33.216Z,2.60
2022-12-14T13:19:40.506Z,2.43
2022-12-14T13:22:03.312Z,2.93
2022-12-14T13:24:33.505Z,2.83
2022-12-14T13:27:29.065Z,2.37
2022-12-14T13:30:13.387Z,2.10
2022-12-14T13:32:54.205Z,2.50
2022-12-14T13:35:52.238Z,2.50
2022-12-14T13:38:46.773Z,3.13
2022-12-14T13:41:29.335Z,2.40
2022-12-14T13:44:24.856Z,2.93
2022-12-14T13:47:03.672Z,2.60
2022-12-14T13:49:33.191Z,2.33
2022-12-14T13:52:01.900Z,2.00
2022-12-14T13:54:33.206Z,2.87
2022-12-14T13:57:06.638Z,1.90
2022-12-14T13:59:38.974Z,1.77
2022-12-14T14:02:30.659Z,2.10
2022-12-14T14:05:43.223Z,2.37
2022-12-14T14:08:33.271Z,2.10
2022-12-14T14:11:46.152Z,2.30
2022-12-14T14:14:25.894Z,2.27
2022-12-14T14:16:58.182Z,2.27
2022-12-14T14:19:29.666Z,1.93
2022-12-14T14:22:26.094Z,2.50
2022-12-14T14:25:00.400Z,1.90
2022-12-14T14:27:35.648Z,1.70
2022-12-14T14:30:05.533Z,2.03
2022-12-14T14:32:43.560Z,2.27
2022-12-14T14:35:31.033Z,1.37
2022-12-14T14:38:01.752Z,1.67
2022-12-14T14:41:06.465Z,2.50
2022-12-14T14:43:28.602Z,2.30
2022-12-14T14:45:58.441Z,2.17
2022-12-14T14:48:34.784Z,2.43
2022-12-14T14:51:18.518Z,1.90
2022-12-14T14:53:46.977Z,2.40
2022-12-14T14:56:46.105Z,2.10
2022-12-14T14:59:50.736Z,2.03
2022-12-14T15:02:34.186Z,2.70
2022-12-14T15:05:40.307Z,2.07
2022-12-14T15:07:55.661Z,1.97
2022-12-14T15:10:29.711Z,2.10
2022-12-14T15:13:03.254Z,2.23
2022-12-14T15:15:38.194Z,2.30
2022-12-14T15:18:16.719Z,2.23
2022-12-14T15:20:54.846Z,3.83
2022-12-14T15:23:24.967Z,2.20
2022-12-14T15:26:01.559Z,2.03
2022-12-14T15:28:29.743Z,1.90
2022-12-14T15:31:00.125Z,2.17
2022-12-14T15:33:32.208Z,2.40
2022-12-14T15:36:05.564Z,2.63
2022-12-14T15:38:37.421Z,2.00
2022-12-14T15:41:08.039Z,3.37
2022-12-14T15:43:35.925Z,2.23
2022-12-14T15:46:04.241Z,2.67
2022-12-14T15:48:34.462Z,3.17
2022-12-14T15:51:04.955Z,3.27
2022-12-14T15:53:37.784Z,2.87
2022-12-14T15:56:18.194Z,2.90
2022-12-14T15:58:47.024Z,1.40
2022-12-14T16:01:19.979Z,1.60
2022-12-14T16:03:51.672Z,2.13
2022-12-14T16:06:20.749Z,1.90
2022-12-14T16:08:55.056Z,2.10
2022-12-14T16:11:27.583Z,1.53
2022-12-14T16:13:57.173Z,2.07
2022-12-14T16:16:25.383Z,1.83
2022-12-14T16:18:53.338Z,1.40
2022-12-14T16:21:29.024Z,2.47
2022-12-14T16:23:58.608Z,1.67
2022-12-14T16:26:29.885Z,1.80
2022-12-14T16:29:09.890Z,1.87
2022-12-14T16:31:38.777Z,2.03
2022-12-14T16:34:09.745Z,2.40
2022-12-14T16:36:38.362Z,2.60
2022-12-14T16:39:15.632Z,2.67
2022-12-14T16:41:49.114Z,2.13
2022-12-14T16:44:22.827Z,2.73
2022-12-14T16:47:23.362Z,2.07
2022-12-14T16:49:56.176Z,2.20
2022-12-14T16:52:27.237Z,2.23
2022-12-14T16:55:13.138Z,1.77
2022-12-14T16:57:43.442Z,1.87
2022-12-14T17:00:22.498Z,1.93
2022-12-14T17:02:56.754Z,1.63
2022-12-14T17:05:26.614Z,2.03
2022-12-14T17:07:54.559Z,1.73
2022-12-14T17:10:26.786Z,1.50
2022-12-14T17:12:58.899Z,1.80
2022-12-14T17:15:28.443Z,2.23
2022-12-14T17:17:58.117Z,2.33
2022-12-14T17:20:28.549Z,1.67
2022-12-14T17:22:59.307Z,2.60
2022-12-14T17:25:29.682Z,2.20
2022-12-14T17:27:58.004Z,2.07
2022-12-14T17:30:26.575Z,2.00
2022-12-14T17:32:55.644Z,2.23
2022-12-14T17:35:28.694Z,2.23
2022-12-14T17:37:57.366Z,2.37
2022-12-14T17:40:25.685Z,1.50
2022-12-14T17:42:58.134Z,3.03
2022-12-14T17:45:27.603Z,3.53
2022-12-14T17:47:58.314Z,3.43
2022-12-14T17:50:26.284Z,4.23
2022-12-14T17:52:54.349Z,3.10
2022-12-14T17:55:25.083Z,2.23
2022-12-14T17:57:55.371Z,3.10
2022-12-14T18:00:43.229Z,2.47
2022-12-14T18:03:12.375Z,3.10
2022-12-14T18:05:46.484Z,3.27
2022-12-14T18:08:14.602Z,2.80
2022-12-14T18:10:42.685Z,2.53
2022-12-14T18:13:13.573Z,2.97
2022-12-14T18:15:44.197Z,1.93
2022-12-14T18:18:18.553Z,3.03
2022-12-14T18:20:49.525Z,2.07
2022-12-14T18:23:18.803Z,2.77
2022-12-14T18:25:48.845Z,2.73
2022-12-14T18:28:18.461Z,2.57
2022-12-14T18:30:50.919Z,2.60
2022-12-14T18:33:21.184Z,2.93
2022-12-14T18:35:50.256Z,2.13
2022-12-14T18:38:18.222Z,2.77
2022-12-14T18:40:49.904Z,2.77
2022-12-14T18:43:21.396Z,2.33
2022-12-14T18:45:49.309Z,2.23
2022-12-14T18:48:17.159Z,1.93
2022-12-14T18:50:45.162Z,2.30
2022-12-14T18:53:15.407Z,2.93
2022-12-14T18:55:44.190Z,2.13
2022-12-14T18:58:17.597Z,2.20
2022-12-14T19:00:47.819Z,2.07
2022-12-14T19:03:16.396Z,6.13
2022-12-14T19:05:44.730Z,16.20
2022-12-14T19:08:13.202Z,19.07
2022-12-14T19:10:42.803Z,19.43
2022-12-14T19:13:18.052Z,20.53
2022-12-14T19:15:51.073Z,3.43
2022-12-14T19:18:19.203Z,2.77
2022-12-14T19:20:49.651Z,3.67
2022-12-14T19:23:19.737Z,3.23
2022-12-14T19:25:48.192Z,3.67
2022-12-14T19:28:31.483Z,3.30
2022-12-14T19:31:03.105Z,2.97
2022-12-14T19:33:31.706Z,3.73
2022-12-14T19:36:01.396Z,3.20
2022-12-14T19:38:31.972Z,3.80
2022-12-14T19:41:02.096Z,3.57
2022-12-14T19:43:30.863Z,3.37
2022-12-14T19:45:59.156Z,2.97
2022-12-14T19:48:28.419Z,3.93
2022-12-14T19:50:56.358Z,3.63
2022-12-14T19:53:24.331Z,2.97
2022-12-14T19:55:53.307Z,3.53
2022-12-14T19:58:22.953Z,3.07
2022-12-14T20:00:51.311Z,2.47
2022-12-14T20:03:19.378Z,4.53
2022-12-14T20:05:53.335Z,3.70
2022-12-14T20:08:21.203Z,2.87
2022-12-14T20:10:49.153Z,3.20
2022-12-14T20:13:17.099Z,3.03
2022-12-14T20:15:49.674Z,3.70
2022-12-14T20:18:17.608Z,2.90
2022-12-14T20:20:49.461Z,3.57
2022-12-14T20:23:20.451Z,3.73
2022-12-14T20:25:48.818Z,3.90
2022-12-14T20:28:16.698Z,3.27
2022-12-14T20:30:45.035Z,3.40
2022-12-14T20:33:13.224Z,3.40
2022-12-14T20:35:41.110Z,3.00
2022-12-14T20:38:09.318Z,3.87
2022-12-14T20:40:39.514Z,3.50
2022-12-14T20:43:07.834Z,3.13
2022-12-14T20:45:38.494Z,3.10
2022-12-14T20:48:07.139Z,2.63
2022-12-14T20:50:35.452Z,3.63
2022-12-14T20:53:03.287Z,2.40
2022-12-14T20:55:31.190Z,2.70
2022-12-14T20:58:00.388Z,2.87
2022-12-14T21:00:28.968Z,4.80
2022-12-14T21:02:57.046Z,3.90
2022-12-14T21:05:25.196Z,2.60
2022-12-14T21:07:53.079Z,2.77
2022-12-14T21:10:20.965Z,3.07
2022-12-14T21:12:48.687Z,2.73
2022-12-14T21:15:18.133Z,2.83
2022-12-14T21:17:46.019Z,2.60
2022-12-14T21:20:14.206Z,3.07
2022-12-14T21:22:42.086Z,2.67
2022-12-14T21:25:10.192Z,3.00
2022-12-14T21:27:40.692Z,3.07
2022-12-14T21:30:12.442Z,2.77
2022-12-14T21:32:41.691Z,3.00
2022-12-14T21:35:10.638Z,2.03
2022-12-14T21:37:39.643Z,2.33
2022-12-14T21:40:29.013Z,2.60
2022-12-14T21:42:55.898Z,2.43
2022-12-14T21:45:23.735Z,1.97
2022-12-14T21:47:53.038Z,2.20
2022-12-14T21:50:20.888Z,2.43
2022-12-14T21:52:48.753Z,2.97
2022-12-14T21:55:16.788Z,2.83
2022-12-14T21:58:01.767Z,2.73
2022-12-14T22:00:29.591Z,1.97
2022-12-14T22:02:58.919Z,1.83
2022-12-14T22:05:26.861Z,2.40
2022-12-14T22:07:54.653Z,2.63
2022-12-14T22:10:25.143Z,3.03
2022-12-14T22:12:53.116Z,2.10
2022-12-14T22:15:21.057Z,2.73
2022-12-14T22:17:50.555Z,2.23
2022-12-14T22:20:19.846Z,3.40
2022-12-14T22:22:47.659Z,3.17
2022-12-14T22:25:15.915Z,2.80
2022-12-14T22:27:44.451Z,2.63
2022-12-14T22:30:17.926Z,3.00
2022-12-14T22:32:45.891Z,2.83
2022-12-14T22:35:13.753Z,2.33
2022-12-14T22:37:42.998Z,3.03
2022-12-14T22:40:11.709Z,2.60
2022-12-14T22:42:39.602Z,2.50
2022-12-14T22:45:08.423Z,2.60
2022-12-14T22:47:36.287Z,2.73
2022-12-14T22:50:04.613Z,3.20
2022-12-14T22:52:32.438Z,2.57
2022-12-14T22:55:01.662Z,2.80
2022-12-14T22:57:30.939Z,2.03
2022-12-14T23:00:02.586Z,3.27
2022-12-14T23:02:31.204Z,2.70
2022-12-14T23:04:59.225Z,1.73
2022-12-14T23:07:27.282Z,2.37
2022-12-14T23:10:12.681Z,2.57
2022-12-14T23:12:59.629Z,2.30
2022-12-14T23:15:44.947Z,2.57
2022-12-14T23:18:30.332Z,2.20
2022-12-14T23:21:16.038Z,2.43
2022-12-14T23:24:03.780Z,2.87
2022-12-14T23:26:49.699Z,2.60
2022-12-14T23:29:36.633Z,2.60
2022-12-14T23:32:22.366Z,2.60
2022-12-14T23:35:08.593Z,2.30
2022-12-14T23:37:53.803Z,2.77
2022-12-14T23:40:38.998Z,2.17
2022-12-14T23:43:28.512Z,3.10
2022-12-14T23:46:15.963Z,1.80
2022-12-14T23:49:01.231Z,2.37
2022-12-14T23:51:46.491Z,2.47
2022-12-14T23:54:32.295Z,2.93
2022-12-14T23:57:17.644Z,2.53
